Time;durP1;ratioP1;P1;durP2;ratioP2;P2;SDS_P1;SDS_P2;PMS_P1;PMS_P2;Temp;Humidity;BMP_temperature;BMP_pressure;BME280_temperature;BME280_humidity;BME280_pressure;Samples;Min_cycle;Max_cycle;Signal;HPM_P1;HPM_P2
2023/06/15 00:01:28;;;;;;;6.70;4.20;;;;;;;10.14;86.46;95591.05;106605;1276;26501;-76
2023/06/15 00:03:56;;;;;;;5.80;4.50;;;;;;;10.09;86.68;95589.72;106581;1276;25334;-77
2023/06/15 00:06:27;;;;;;;5.50;4.50;;;;;;;10.03;86.32;95591.77;106644;1276;24201;-77
2023/06/15 00:08:56;;;;;;;6.10;4.50;;;;;;;10.02;86.48;95591.61;106577;1276;22628;-77
2023/06/15 00:11:25;;;;;;;9.00;4.00;;;;;;;10.01;87.84;95592.87;106711;1276;25244;-77
2023/06/15 00:13:53;;;;;;;5.00;4.00;;;;;;;10.01;87.40;95587.77;106636;1276;25390;-77
2023/06/15 00:16:22;;;;;;;6.10;3.70;;;;;;;10.03;87.06;95590.19;106628;1276;22513;-78
2023/06/15 00:18:54;;;;;;;5.60;3.60;;;;;;;10.09;87.36;95587.98;106583;1276;22530;-77
2023/06/15 00:21:24;;;;;;;6.90;3.70;;;;;;;10.11;86.87;95584.79;106595;1276;22688;-77
2023/06/15 00:23:52;;;;;;;7.10;3.50;;;;;;;10.08;86.49;95587.48;106552;1276;22594;-78
2023/06/15 00:26:21;;;;;;;6.20;3.90;;;;;;;10.05;87.23;95588.73;106554;1276;24254;-78
2023/06/15 00:28:49;;;;;;;9.90;3.60;;;;;;;10.09;87.37;95587.80;106561;1276;22537;-78
2023/06/15 00:31:19;;;;;;;5.40;3.30;;;;;;;10.17;87.02;95587.84;106582;1276;22517;-77
2023/06/15 00:33:47;;;;;;;6.20;3.70;;;;;;;10.22;86.58;95583.90;106612;1276;22554;-78
2023/06/15 00:36:18;;;;;;;5.10;3.40;;;;;;;10.28;85.94;95585.04;106515;1276;24198;-78
2023/06/15 00:38:46;;;;;;;8.30;3.80;;;;;;;10.20;85.18;95580.24;106409;1276;22521;-78
2023/06/15 00:41:15;;;;;;;5.60;3.40;;;;;;;10.12;85.11;95581.95;106578;1276;24333;-78
2023/06/15 00:43:43;;;;;;;7.20;3.40;;;;;;;10.06;85.16;95583.63;106550;1269;22521;-78
2023/06/15 00:46:12;;;;;;;5.10;3.20;;;;;;;10.07;85.87;95581.51;106551;1276;22529;-78
2023/06/15 00:48:41;;;;;;;5.60;3.00;;;;;;;10.01;85.54;95582.30;106651;1263;25411;-78
2023/06/15 00:51:10;;;;;;;7.50;3.40;;;;;;;9.98;85.74;95581.84;106597;1276;24081;-78
2023/06/15 00:53:39;;;;;;;5.80;3.30;;;;;;;10.01;86.40;95585.30;106617;1276;22527;-78
2023/06/15 00:56:08;;;;;;;4.60;3.40;;;;;;;10.09;86.61;95581.64;106637;1276;25628;-78
2023/06/15 00:58:36;;;;;;;4.50;3.30;;;;;;;10.09;86.89;95580.59;106609;1256;22623;-78
2023/06/15 01:01:04;;;;;;;8.30;4.00;;;;;;;10.13;85.93;95582.98;106607;1276;22662;-78
2023/06/15 01:03:35;;;;;;;6.00;4.00;;;;;;;10.10;85.19;95579.35;106549;1276;24388;-77
2023/06/15 01:06:12;;;;;;;5.10;4.20;;;;;;;10.08;85.62;95577.45;106614;1276;22635;-77
2023/06/15 01:08:44;;;;;;;6.00;4.50;;;;;;;10.06;85.37;95574.14;106613;1276;22528;-77
2023/06/15 01:11:17;;;;;;;5.80;4.40;;;;;;;10.04;85.63;95572.09;106557;1276;22525;-78
2023/06/15 01:13:46;;;;;;;7.00;4.40;;;;;;;10.01;85.39;95566.50;106597;1276;22543;-77
2023/06/15 01:16:24;;;;;;;6.10;4.10;;;;;;;9.97;85.76;95568.30;106665;1276;24276;-77
2023/06/15 01:18:59;;;;;;;6.00;3.80;;;;;;;9.87;85.87;95572.70;106584;1276;22517;-78
2023/06/15 01:21:29;;;;;;;8.50;4.70;;;;;;;9.80;85.54;95572.29;106576;1276;22654;-77
2023/06/15 01:24:05;;;;;;;9.10;3.90;;;;;;;9.76;86.03;95571.13;106614;1271;25466;-76
2023/06/15 01:26:34;;;;;;;6.00;4.40;;;;;;;9.71;86.80;95572.95;106637;1276;24223;-77
2023/06/15 01:29:03;;;;;;;5.60;3.70;;;;;;;9.71;86.55;95572.25;106647;1276;24462;-77
2023/06/15 01:31:32;;;;;;;8.00;4.70;;;;;;;9.69;86.15;95575.27;106582;1276;23890;-76
2023/06/15 01:34:00;;;;;;;8.20;4.60;;;;;;;9.67;85.99;95577.95;106613;1276;25400;-77
2023/06/15 01:36:29;;;;;;;6.20;4.10;;;;;;;9.62;85.74;95580.64;106538;1267;22530;-77
2023/06/15 01:38:59;;;;;;;6.40;3.80;;;;;;;9.52;86.27;95583.24;106355;1276;24353;-77
2023/06/15 01:41:28;;;;;;;5.00;3.70;;;;;;;9.45;86.94;95576.67;106690;1276;24208;-77
2023/06/15 01:43:58;;;;;;;5.10;3.60;;;;;;;9.40;87.34;95576.40;106645;1276;22520;-77
2023/06/15 01:46:28;;;;;;;6.90;4.30;;;;;;;9.37;87.00;95578.73;106641;1276;24264;-76
2023/06/15 01:48:56;;;;;;;5.90;3.90;;;;;;;9.30;86.90;95575.48;106598;1276;22658;-76
2023/06/15 01:51:26;;;;;;;5.00;3.50;;;;;;;9.25;86.58;95574.86;106633;1276;25248;-76
2023/06/15 01:53:54;;;;;;;4.50;3.50;;;;;;;9.17;86.78;95569.36;106617;1276;22706;-77
2023/06/15 01:56:24;;;;;;;6.10;3.60;;;;;;;9.17;86.86;95573.21;106567;1276;25471;-77
2023/06/15 01:58:53;;;;;;;6.50;3.50;;;;;;;9.18;86.80;95572.33;106588;1276;23888;-76
2023/06/15 02:01:21;;;;;;;4.90;3.90;;;;;;;9.23;87.56;95567.16;106556;1276;22528;-76
2023/06/15 02:03:53;;;;;;;5.60;3.80;;;;;;;9.30;87.93;95570.76;106562;1276;22635;-77
2023/06/15 02:06:21;;;;;;;6.70;3.80;;;;;;;9.29;87.02;95570.41;106608;1276;25316;-77
2023/06/15 02:08:50;;;;;;;9.70;5.10;;;;;;;9.24;87.19;95573.98;106492;1276;22661;-76
2023/06/15 02:11:18;;;;;;;8.40;5.70;;;;;;;9.27;87.54;95576.75;106608;1276;22586;-77
2023/06/15 02:13:48;;;;;;;6.30;3.70;;;;;;;9.32;87.45;95574.23;106630;1276;22521;-77
2023/06/15 02:16:16;;;;;;;6.40;3.70;;;;;;;9.36;87.99;95574.35;106631;1263;25220;-77
2023/06/15 02:18:47;;;;;;;4.60;3.60;;;;;;;9.39;88.12;95571.86;106649;1276;22527;-77
2023/06/15 02:21:16;;;;;;;6.20;3.60;;;;;;;9.47;87.26;95570.68;106555;1276;22605;-77
2023/06/15 02:23:45;;;;;;;4.70;3.60;;;;;;;9.38;86.25;95572.91;106596;1266;22539;-77
2023/06/15 02:26:13;;;;;;;8.70;6.00;;;;;;;9.23;86.39;95575.23;106591;1276;24074;-77
2023/06/15 02:28:41;;;;;;;8.80;4.80;;;;;;;9.18;86.45;95575.30;106503;1276;24241;-77
2023/06/15 02:31:10;;;;;;;4.90;3.60;;;;;;;9.16;86.59;95571.65;106566;1276;22515;-77
2023/06/15 02:33:38;;;;;;;8.70;6.10;;;;;;;9.25;87.47;95572.74;106550;1274;22613;-77
2023/06/15 02:36:06;;;;;;;11.40;6.90;;;;;;;9.26;86.83;95569.73;106312;1276;22662;-77
2023/06/15 02:38:37;;;;;;;10.10;6.90;;;;;;;9.27;87.23;95574.66;106611;1276;22528;-78
2023/06/15 02:41:05;;;;;;;11.90;7.90;;;;;;;9.35;87.46;95574.73;106587;1276;24263;-77
2023/06/15 02:43:33;;;;;;;13.20;7.90;;;;;;;9.39;87.04;95579.75;106580;1276;22540;-77
2023/06/15 02:46:02;;;;;;;11.50;7.20;;;;;;;9.39;86.53;95581.34;106563;1276;25474;-77
2023/06/15 02:48:31;;;;;;;10.80;7.80;;;;;;;9.40;86.44;95580.10;106574;1276;22644;-77
2023/06/15 02:50:59;;;;;;;8.40;6.40;;;;;;;9.40;86.29;95582.02;106542;1276;22514;-77
2023/06/15 02:53:27;;;;;;;12.20;6.00;;;;;;;9.36;86.21;95583.66;106648;1276;24250;-76
2023/06/15 02:55:57;;;;;;;5.90;4.30;;;;;;;9.31;86.15;95586.36;106566;1276;22559;-77
2023/06/15 02:58:26;;;;;;;7.90;3.70;;;;;;;9.28;86.11;95584.46;106623;1276;22518;-77
2023/06/15 03:01:18;;;;;;;7.60;5.00;;;;;;;9.20;86.57;95581.95;106604;1276;23281;-77
2023/06/15 03:03:52;;;;;;;11.60;7.90;;;;;;;9.10;86.97;95579.62;106568;1276;22526;-77
2023/06/15 03:06:21;;;;;;;16.20;9.40;;;;;;;9.05;87.49;95578.64;106592;1276;22843;-77
2023/06/15 03:08:49;;;;;;;10.20;6.90;;;;;;;8.99;88.05;95577.12;106582;1276;22523;-77
2023/06/15 03:11:21;;;;;;;11.60;6.30;;;;;;;9.00;87.84;95577.80;106596;1276;23910;-77
2023/06/15 03:13:49;;;;;;;9.10;6.40;;;;;;;8.99;87.85;95578.89;106615;1276;22514;-77
2023/06/15 03:16:17;;;;;;;8.00;5.90;;;;;;;9.00;88.14;95581.33;106520;1276;25282;-77
2023/06/15 03:18:48;;;;;;;14.90;6.60;;;;;;;9.02;88.48;95581.29;106569;1276;24243;-77
2023/06/15 03:21:20;;;;;;;7.10;5.60;;;;;;;9.07;88.45;95582.29;106395;1276;22517;-78
2023/06/15 03:23:50;;;;;;;9.70;6.10;;;;;;;9.08;89.28;95580.35;106559;1276;23624;-77
2023/06/15 03:26:23;;;;;;;8.60;6.00;;;;;;;9.12;89.79;95582.94;106596;1276;25207;-77
2023/06/15 03:28:52;;;;;;;7.40;6.00;;;;;;;9.19;89.90;95587.23;106602;1276;22538;-77
2023/06/15 03:31:22;;;;;;;7.00;5.40;;;;;;;9.30;89.73;95586.20;106582;1276;22797;-77
2023/06/15 03:33:50;;;;;;;8.20;5.50;;;;;;;9.44;89.62;95588.45;106411;1276;22521;-77
2023/06/15 03:36:19;;;;;;;6.20;4.90;;;;;;;9.52;88.69;95591.86;106648;1276;22606;-77
2023/06/15 03:38:48;;;;;;;12.50;5.90;;;;;;;9.56;88.39;95590.23;106599;1272;22794;-77
2023/06/15 03:41:17;;;;;;;7.80;5.30;;;;;;;9.61;88.78;95587.50;106633;1276;22520;-77
2023/06/15 03:43:45;;;;;;;7.40;4.90;;;;;;;9.74;89.29;95586.77;106552;1276;24221;-80
2023/06/15 03:46:14;;;;;;;9.40;4.80;;;;;;;9.93;89.82;95586.31;106572;1276;22647;-75
2023/06/15 03:48:43;;;;;;;7.20;4.80;;;;;;;10.12;89.95;95585.46;106639;1276;22717;-75
2023/06/15 03:51:12;;;;;;;8.10;4.60;;;;;;;10.32;89.62;95583.04;106612;1276;22524;-75
2023/06/15 03:53:42;;;;;;;11.40;4.30;;;;;;;10.49;89.50;95585.37;106602;1276;22511;-75
2023/06/15 03:56:10;;;;;;;6.70;4.90;;;;;;;10.67;88.89;95589.27;106647;1276;25403;-75
2023/06/15 03:58:39;;;;;;;7.60;5.00;;;;;;;10.77;88.31;95588.34;106639;1276;25373;-75
2023/06/15 04:01:08;;;;;;;6.60;4.20;;;;;;;10.93;88.30;95588.05;106564;1276;25378;-75
2023/06/15 04:03:37;;;;;;;6.20;4.30;;;;;;;11.02;87.17;95589.09;106583;1276;22641;-74
2023/06/15 04:06:06;;;;;;;4.70;4.20;;;;;;;11.01;86.61;95590.00;106536;1276;22518;-75
2023/06/15 04:08:35;;;;;;;5.90;4.30;;;;;;;11.11;87.43;95591.02;106537;1276;22547;-75
2023/06/15 04:11:03;;;;;;;7.60;4.30;;;;;;;11.27;87.68;95590.15;106608;1276;22596;-74
2023/06/15 04:13:32;;;;;;;7.50;4.80;;;;;;;11.42;86.82;95591.58;106529;1276;22548;-75
2023/06/15 04:16:02;;;;;;;8.10;4.90;;;;;;;11.61;86.76;95591.20;106607;1276;24399;-74
2023/06/15 04:18:31;;;;;;;7.00;5.00;;;;;;;11.71;86.14;95584.77;106618;1276;22796;-75
2023/06/15 04:20:59;;;;;;;6.40;4.90;;;;;;;11.84;86.41;95583.80;106387;1276;22650;-74
2023/06/15 04:23:27;;;;;;;7.40;4.70;;;;;;;11.93;85.77;95578.14;106516;1272;22639;-74
2023/06/15 04:25:58;;;;;;;7.20;5.00;;;;;;;12.03;86.08;95580.00;106556;1276;22640;-74
2023/06/15 04:28:27;;;;;;;10.80;4.90;;;;;;;12.12;85.54;95579.06;106400;1276;22529;-74
2023/06/15 04:31:10;;;;;;;8.40;5.00;;;;;;;12.14;85.20;95578.69;106558;1276;25476;-73
2023/06/15 04:33:42;;;;;;;8.00;5.70;;;;;;;12.16;85.15;95576.70;106618;1276;25470;-75
2023/06/15 04:36:12;;;;;;;15.90;6.40;;;;;;;12.18;85.29;95574.52;106595;1276;22625;-75
2023/06/15 04:38:48;;;;;;;9.60;4.90;;;;;;;12.22;85.11;95577.78;106619;1276;22636;-75
2023/06/15 04:41:24;;;;;;;9.50;6.30;;;;;;;12.21;85.17;95578.33;106581;1276;22515;-75
2023/06/15 04:43:56;;;;;;;6.50;5.00;;;;;;;12.26;85.38;95574.15;106552;1276;22809;-75
2023/06/15 04:46:27;;;;;;;7.10;5.20;;;;;;;12.26;85.28;95571.30;106583;1276;22640;-74
2023/06/15 04:48:57;;;;;;;9.40;5.70;;;;;;;12.28;85.57;95576.89;106586;1276;22552;-74
2023/06/15 04:51:25;;;;;;;7.80;5.40;;;;;;;12.33;85.83;95576.77;106505;1276;23882;-74
2023/06/15 04:53:54;;;;;;;6.90;5.30;;;;;;;12.42;86.29;95576.91;106594;1276;22523;-75
2023/06/15 04:56:23;;;;;;;8.40;5.50;;;;;;;12.46;86.17;95574.50;106509;1276;22543;-75
2023/06/15 04:58:53;;;;;;;8.50;5.80;;;;;;;12.53;85.93;95576.27;106616;1276;22539;-75
2023/06/15 05:01:21;;;;;;;5.60;4.80;;;;;;;12.59;85.76;95573.80;106645;1276;25468;-77
2023/06/15 05:03:53;;;;;;;7.10;4.90;;;;;;;12.65;85.92;95572.59;106534;1276;23023;-77
2023/06/15 05:06:21;;;;;;;10.30;4.60;;;;;;;12.69;85.92;95574.41;106529;1276;22515;-69
2023/06/15 05:08:50;;;;;;;10.90;5.10;;;;;;;12.73;85.76;95573.77;106612;1276;24189;-73
2023/06/15 05:11:21;;;;;;;6.30;4.80;;;;;;;12.77;85.76;95571.37;106559;1276;22806;-72
2023/06/15 05:13:49;;;;;;;6.70;4.60;;;;;;;12.87;85.77;95572.17;106520;1276;25298;-67
2023/06/15 05:16:19;;;;;;;5.40;4.40;;;;;;;12.98;85.73;95574.85;106502;1276;25227;-75
2023/06/15 05:18:47;;;;;;;5.80;4.50;;;;;;;13.09;86.02;95578.60;106505;1276;22526;-71
2023/06/15 05:21:17;;;;;;;5.60;4.20;;;;;;;13.25;85.84;95576.57;106516;1276;22707;-71
2023/06/15 05:23:46;;;;;;;5.90;4.70;;;;;;;13.46;85.93;95572.24;106570;1276;25400;-70
2023/06/15 05:26:15;;;;;;;8.50;5.10;;;;;;;13.64;85.44;95569.58;106502;1276;24246;-71
2023/06/15 05:28:46;;;;;;;7.10;4.60;;;;;;;13.83;84.68;95567.21;106671;1276;22537;-81
2023/06/15 05:31:14;;;;;;;6.50;4.40;;;;;;;13.97;84.16;95562.36;106579;1276;22798;-74
2023/06/15 05:33:43;;;;;;;10.60;4.70;;;;;;;14.14;84.04;95559.86;106541;1276;22531;-68
2023/06/15 05:36:11;;;;;;;8.70;4.60;;;;;;;14.29;82.43;95561.68;106564;1276;25369;-69
2023/06/15 05:39:00;;;;;;;9.00;4.90;;;;;;;14.45;82.82;95565.89;106322;1276;25496;-72
2023/06/15 05:41:29;;;;;;;5.50;4.70;;;;;;;14.63;82.45;95565.30;106578;1276;25246;-70
2023/06/15 05:43:59;;;;;;;8.80;5.30;;;;;;;14.78;82.32;95565.29;106626;1276;22527;-70
2023/06/15 05:46:28;;;;;;;9.20;5.30;;;;;;;14.98;82.50;95567.95;106572;1276;25217;-71
2023/06/15 05:48:56;;;;;;;6.70;5.10;;;;;;;15.13;82.54;95571.48;106675;1276;23882;-72
2023/06/15 05:51:25;;;;;;;7.50;4.80;;;;;;;15.27;81.53;95568.48;106532;1276;22527;-71
2023/06/15 05:53:53;;;;;;;7.60;5.60;;;;;;;15.38;81.45;95567.36;106521;1276;22530;-77
2023/06/15 05:56:22;;;;;;;8.60;6.10;;;;;;;15.49;81.44;95565.36;106573;1276;22527;-70
2023/06/15 05:58:50;;;;;;;7.60;5.70;;;;;;;15.63;81.48;95564.09;106763;1276;22632;-71
2023/06/15 06:01:19;;;;;;;6.80;5.50;;;;;;;15.76;80.73;95562.04;106843;1276;22520;-75
2023/06/15 06:03:48;;;;;;;7.30;5.50;;;;;;;15.87;80.06;95560.20;106640;1276;22523;-78
2023/06/15 06:06:16;;;;;;;6.30;5.50;;;;;;;15.98;79.82;95562.37;106588;1276;22519;-76
2023/06/15 06:08:46;;;;;;;7.10;5.20;;;;;;;16.10;79.08;95563.17;106535;1276;25274;-75
2023/06/15 06:11:14;;;;;;;7.40;5.20;;;;;;;16.15;76.63;95564.20;106572;1276;22532;-71
2023/06/15 06:13:55;;;;;;;7.60;5.20;;;;;;;16.22;76.83;95563.73;106548;1276;22543;-74
2023/06/15 06:16:23;;;;;;;7.50;5.60;;;;;;;16.34;77.35;95567.29;106534;1276;22530;-82
2023/06/15 06:18:52;;;;;;;8.40;4.70;;;;;;;16.48;77.20;95570.30;106543;1276;23662;-77
2023/06/15 06:21:20;;;;;;;5.60;4.30;;;;;;;16.61;75.89;95568.67;106516;1276;22521;-79
2023/06/15 06:23:49;;;;;;;6.10;4.50;;;;;;;16.71;73.99;95572.50;106536;1276;22521;-78
2023/06/15 06:26:17;;;;;;;6.20;4.80;;;;;;;16.81;73.11;95574.39;106562;1276;22679;-75
2023/06/15 06:28:46;;;;;;;6.20;4.50;;;;;;;16.91;73.64;95574.88;106693;1276;24375;-71
2023/06/15 06:31:14;;;;;;;5.60;4.30;;;;;;;17.00;74.11;95574.30;106672;1276;25234;-78
2023/06/15 06:33:42;;;;;;;5.30;3.50;;;;;;;17.12;71.52;95578.39;106452;1276;22537;-71
2023/06/15 06:36:10;;;;;;;5.30;3.50;;;;;;;17.13;67.80;95577.29;106645;1276;22512;-69
2023/06/15 06:38:38;;;;;;;4.30;3.40;;;;;;;17.12;69.10;95578.75;106766;1276;22558;-69
2023/06/15 06:41:27;;;;;;;5.80;3.90;;;;;;;17.12;69.32;95576.63;106684;1276;25218;-72
2023/06/15 06:43:55;;;;;;;5.40;4.00;;;;;;;17.11;69.02;95577.36;106492;1261;25364;-72
2023/06/15 06:46:23;;;;;;;7.80;4.10;;;;;;;17.12;68.84;95580.54;106521;1276;25241;-72
2023/06/15 06:48:52;;;;;;;5.50;3.50;;;;;;;17.12;68.31;95580.52;106686;1276;24228;-75
2023/06/15 06:51:20;;;;;;;4.60;4.00;;;;;;;17.16;68.55;95579.46;106745;1276;22528;-77
2023/06/15 06:53:48;;;;;;;5.20;3.40;;;;;;;17.22;68.74;95579.17;106543;1276;25389;-73
2023/06/15 06:56:17;;;;;;;5.90;3.90;;;;;;;17.26;68.32;95577.92;106824;1276;24208;-75
2023/06/15 06:58:45;;;;;;;4.60;3.20;;;;;;;17.29;67.32;95574.23;106610;1276;24310;-72
2023/06/15 07:01:13;;;;;;;4.80;3.70;;;;;;;17.40;65.94;95575.53;106686;1276;22517;-77
2023/06/15 07:03:42;;;;;;;5.00;3.60;;;;;;;17.51;63.72;95571.30;106588;1276;25471;-78
2023/06/15 07:06:10;;;;;;;4.30;3.40;;;;;;;17.68;65.21;95567.98;106628;1270;26544;-75
2023/06/15 07:08:38;;;;;;;5.70;3.90;;;;;;;17.85;64.45;95565.96;106415;1276;25326;-78
2023/06/15 07:11:06;;;;;;;3.60;3.20;;;;;;;17.89;63.00;95565.05;106548;1276;25314;-76
2023/06/15 07:13:34;;;;;;;8.30;3.90;;;;;;;17.93;63.01;95567.34;106504;1276;22522;-76
2023/06/15 07:16:04;;;;;;;4.30;3.40;;;;;;;17.96;62.14;95561.35;106879;1276;22566;-73
2023/06/15 07:18:32;;;;;;;6.00;3.50;;;;;;;17.96;62.74;95561.35;106834;1276;24331;-75
2023/06/15 07:21:00;;;;;;;4.10;3.70;;;;;;;18.02;63.34;95559.67;106872;1276;25246;-69
2023/06/15 07:23:29;;;;;;;5.50;3.50;;;;;;;18.06;63.70;95559.65;106672;1276;24349;-68
2023/06/15 07:26:15;;;;;;;4.40;3.20;;;;;;;18.10;61.90;95557.50;106852;1276;24372;-74
2023/06/15 07:28:43;;;;;;;4.30;3.50;;;;;;;18.14;62.36;95553.70;106717;1276;23903;-72
2023/06/15 07:31:11;;;;;;;4.20;3.40;;;;;;;18.20;61.18;95550.41;106676;1276;22526;-71
2023/06/15 07:33:40;;;;;;;4.60;3.60;;;;;;;18.30;62.22;95552.42;106623;1276;22643;-71
2023/06/15 07:36:08;;;;;;;4.30;3.30;;;;;;;18.44;62.59;95552.59;106710;1276;25863;-69
2023/06/15 07:38:37;;;;;;;5.00;3.40;;;;;;;18.59;61.79;95553.81;106543;1276;26613;-72
2023/06/15 07:41:05;;;;;;;5.00;3.20;;;;;;;18.69;61.36;95549.39;106753;1276;25330;-71
2023/06/15 07:43:35;;;;;;;4.70;3.30;;;;;;;18.75;60.27;95551.38;106756;1276;22550;-72
2023/06/15 07:46:03;;;;;;;4.70;3.20;;;;;;;18.82;60.32;95553.73;106577;1276;22535;-71
2023/06/15 07:48:31;;;;;;;5.20;3.50;;;;;;;18.94;61.21;95553.48;106564;1276;24896;-70
2023/06/15 07:50:59;;;;;;;5.40;3.50;;;;;;;18.98;59.10;95554.67;106482;1276;25476;-69
2023/06/15 07:53:28;;;;;;;4.50;3.20;;;;;;;18.97;59.00;95552.04;106712;1276;24225;-70
2023/06/15 07:55:56;;;;;;;4.40;3.20;;;;;;;18.93;58.27;95549.95;106808;1276;22525;-70
2023/06/15 07:58:24;;;;;;;5.20;3.20;;;;;;;18.87;59.05;95550.83;106538;1276;24206;-70
2023/06/15 08:00:52;;;;;;;4.40;3.30;;;;;;;18.80;58.16;95552.02;106472;1276;24241;-71
2023/06/15 08:03:21;;;;;;;4.90;3.30;;;;;;;18.79;58.57;95548.70;106560;1276;22548;-68
2023/06/15 08:05:50;;;;;;;4.50;2.80;;;;;;;18.84;59.27;95552.22;106584;1273;24272;-70
2023/06/15 08:08:18;;;;;;;3.70;3.00;;;;;;;18.91;59.28;95550.59;106467;1276;22516;-69
2023/06/15 08:10:47;;;;;;;3.50;2.90;;;;;;;18.99;59.11;95552.52;106637;1276;22525;-69
2023/06/15 08:13:15;;;;;;;4.90;2.90;;;;;;;19.06;58.44;95552.83;106532;1276;22532;-71
2023/06/15 08:15:43;;;;;;;5.50;3.20;;;;;;;19.10;56.30;95551.02;106516;1276;24100;-70
2023/06/15 08:18:12;;;;;;;4.50;2.80;;;;;;;19.20;57.18;95553.67;106554;1276;24270;-73
2023/06/15 08:20:40;;;;;;;3.80;2.40;;;;;;;19.38;56.28;95553.64;106637;1276;22646;-70
2023/06/15 08:23:08;;;;;;;3.00;2.70;;;;;;;19.47;53.48;95550.29;106585;1276;25282;-75
2023/06/15 08:25:36;;;;;;;4.40;2.70;;;;;;;19.57;51.09;95538.17;106572;1276;22525;-76
2023/06/15 08:28:05;;;;;;;4.10;2.40;;;;;;;19.61;49.76;95539.39;106583;1276;22527;-75
2023/06/15 08:30:34;;;;;;;6.10;2.70;;;;;;;19.69;50.32;95539.51;106589;1276;22539;-72
2023/06/15 08:33:02;;;;;;;4.10;3.00;;;;;;;19.81;51.82;95544.55;106566;1276;22598;-70
2023/06/15 08:35:31;;;;;;;7.10;3.10;;;;;;;19.92;52.50;95542.30;106613;1276;22642;-72
2023/06/15 08:37:59;;;;;;;5.30;2.80;;;;;;;19.96;51.20;95540.31;106609;1276;22531;-72
2023/06/15 08:40:28;;;;;;;3.40;3.00;;;;;;;19.97;51.79;95540.80;106557;1276;22521;-72
2023/06/15 08:42:58;;;;;;;2.90;2.60;;;;;;;19.99;51.83;95541.92;106542;1276;25411;-72
2023/06/15 08:45:36;;;;;;;4.80;3.20;;;;;;;20.01;52.41;95543.06;106552;1276;22530;-72
2023/06/15 08:48:07;;;;;;;4.00;3.10;;;;;;;20.04;53.00;95547.84;106558;1276;22570;-72
2023/06/15 08:50:38;;;;;;;3.00;2.70;;;;;;;20.07;53.07;95546.30;106600;1276;22528;-72
2023/06/15 08:53:08;;;;;;;3.10;2.70;;;;;;;20.02;52.74;95548.70;106592;1276;24406;-72
2023/06/15 08:55:37;;;;;;;3.90;3.10;;;;;;;19.98;53.12;95546.46;106613;1276;26723;-72
2023/06/15 08:58:06;;;;;;;4.10;3.10;;;;;;;19.96;53.72;95549.23;106602;1276;22642;-72
2023/06/15 09:00:37;;;;;;;3.70;3.00;;;;;;;19.96;53.73;95551.36;106594;1276;22853;-72
2023/06/15 09:03:09;;;;;;;5.30;3.20;;;;;;;19.98;54.15;95550.20;106581;1276;22531;-72
2023/06/15 09:05:37;;;;;;;4.40;2.90;;;;;;;20.00;53.97;95552.03;106578;1276;22654;-72
2023/06/15 09:08:06;;;;;;;4.00;3.10;;;;;;;20.04;54.63;95548.20;106554;1276;25291;-72
2023/06/15 09:10:38;;;;;;;4.20;3.30;;;;;;;20.08;54.23;95544.98;106551;1276;25469;-72
2023/06/15 09:13:15;;;;;;;3.70;3.00;;;;;;;20.14;53.82;95548.20;106577;1276;24246;-72
2023/06/15 09:15:50;;;;;;;5.60;3.30;;;;;;;20.16;52.76;95541.46;106631;1276;22637;-72
2023/06/15 09:18:19;;;;;;;3.80;3.00;;;;;;;20.20;53.30;95543.02;106584;1276;25312;-72
2023/06/15 09:20:48;;;;;;;7.10;3.60;;;;;;;20.25;53.25;95538.27;106566;1264;22543;-72
2023/06/15 09:23:16;;;;;;;4.60;3.20;;;;;;;20.37;53.54;95538.69;106557;1276;24231;-72
2023/06/15 09:25:53;;;;;;;4.10;3.50;;;;;;;20.47;52.47;95538.26;106525;1276;25542;-72
2023/06/15 09:28:27;;;;;;;4.20;3.30;;;;;;;20.53;51.40;95536.68;106620;1276;24285;-72
2023/06/15 09:30:56;;;;;;;4.60;3.60;;;;;;;20.57;52.43;95538.64;106554;1276;22576;-72
2023/06/15 09:33:25;;;;;;;3.90;3.40;;;;;;;20.59;52.74;95540.98;106591;1276;25497;-72
2023/06/15 09:35:59;;;;;;;3.70;3.10;;;;;;;20.66;52.52;95543.80;106538;1276;22536;-72
2023/06/15 09:38:53;;;;;;;3.80;3.10;;;;;;;20.71;52.79;95542.95;106588;1276;22614;-72
2023/06/15 09:41:21;;;;;;;3.90;3.00;;;;;;;20.74;51.68;95539.74;106572;1273;22530;-73
2023/06/15 09:43:49;;;;;;;4.70;3.30;;;;;;;20.78;51.62;95540.20;106629;1276;22688;-72
2023/06/15 09:46:20;;;;;;;4.10;3.00;;;;;;;20.87;52.10;95541.61;106579;1276;24259;-72
2023/06/15 09:48:48;;;;;;;5.80;3.70;;;;;;;20.92;52.10;95543.29;106585;1276;24402;-73
2023/06/15 09:51:17;;;;;;;5.50;3.50;;;;;;;20.94;51.97;95540.34;106561;1276;22526;-72
2023/06/15 09:53:47;;;;;;;3.70;3.20;;;;;;;21.02;53.17;95538.76;106652;1265;22535;-73
2023/06/15 09:56:15;;;;;;;3.70;3.00;;;;;;;21.06;52.27;95539.41;106550;1276;24769;-72
2023/06/15 09:59:02;;;;;;;5.80;3.50;;;;;;;21.14;52.31;95535.56;106543;1276;23889;-73
2023/06/15 10:01:35;;;;;;;3.50;3.10;;;;;;;21.14;50.72;95538.73;106625;1276;25217;-72
2023/06/15 10:04:04;;;;;;;6.50;3.30;;;;;;;21.21;52.34;95541.02;106571;1276;22524;-73
2023/06/15 10:06:35;;;;;;;3.40;3.00;;;;;;;21.35;52.04;95536.76;106605;1276;24287;-73
2023/06/15 10:09:06;;;;;;;6.40;3.30;;;;;;;21.50;51.94;95535.83;106591;1276;22642;-73
2023/06/15 10:11:39;;;;;;;5.10;3.30;;;;;;;21.63;52.49;95535.19;106548;1276;22519;-72
2023/06/15 10:14:17;;;;;;;3.60;3.30;;;;;;;21.65;51.39;95529.21;106566;1276;25356;-73
2023/06/15 10:16:51;;;;;;;4.40;3.20;;;;;;;21.75;51.88;95529.08;106597;1276;22551;-73
2023/06/15 10:19:21;;;;;;;3.80;3.10;;;;;;;21.85;51.75;95529.88;106144;1276;613253;-73
2023/06/15 10:21:51;;;;;;;5.40;3.40;;;;;;;21.90;51.49;95530.59;106612;1276;23910;-73
2023/06/15 10:24:23;;;;;;;6.80;3.30;;;;;;;21.90;49.43;95528.46;106623;1276;22619;-73
2023/06/15 10:26:51;;;;;;;4.20;3.60;;;;;;;21.92;49.93;95530.14;106569;1276;24344;-73
2023/06/15 10:29:32;;;;;;;4.30;3.90;;;;;;;21.95;50.64;95530.66;106688;1276;22636;-73
2023/06/15 10:32:10;;;;;;;3.60;3.30;;;;;;;21.98;49.88;95529.91;106602;1276;22784;-73
2023/06/15 10:34:41;;;;;;;4.20;3.60;;;;;;;22.03;50.01;95527.45;106592;1276;24239;-73
2023/06/15 10:37:12;;;;;;;4.70;3.80;;;;;;;22.12;52.06;95530.08;106543;1276;22532;-73
2023/06/15 10:39:44;;;;;;;5.30;3.30;;;;;;;22.19;50.54;95525.02;106610;1276;22525;-73
2023/06/15 10:42:13;;;;;;;10.20;3.60;;;;;;;22.19;49.61;95523.24;106586;1276;22533;-72
2023/06/15 10:44:42;;;;;;;4.90;3.20;;;;;;;22.14;48.74;95515.08;106646;1276;22521;-73
2023/06/15 10:47:13;;;;;;;5.30;3.70;;;;;;;22.19;49.90;95517.84;106668;1276;22642;-73
2023/06/15 10:49:53;;;;;;;3.30;3.00;;;;;;;22.13;49.72;95517.66;106553;1270;24410;-72
2023/06/15 10:52:21;;;;;;;5.40;3.60;;;;;;;22.08;50.25;95515.51;106605;1276;22995;-72
2023/06/15 10:54:50;;;;;;;4.00;3.50;;;;;;;22.11;50.52;95510.67;106615;1276;22530;-73
2023/06/15 10:57:27;;;;;;;4.40;3.50;;;;;;;22.12;51.20;95507.14;106638;1276;25712;-72
2023/06/15 10:59:58;;;;;;;4.30;3.30;;;;;;;22.17;51.82;95508.45;106553;1276;25315;-72
2023/06/15 11:02:31;;;;;;;3.70;3.30;;;;;;;22.26;52.04;95507.71;106577;1276;24428;-72
2023/06/15 11:05:09;;;;;;;4.60;3.40;;;;;;;22.40;51.28;95506.21;106527;1276;22517;-72
2023/06/15 11:07:43;;;;;;;6.10;3.60;;;;;;;22.46;50.15;95509.96;106567;1276;25225;-71
2023/06/15 11:10:42;;;;;;;7.90;4.10;;;;;;;22.37;50.03;95503.40;106587;1276;22574;-71
2023/06/15 11:13:10;;;;;;;5.20;4.00;;;;;;;22.33;50.61;95501.67;106457;1276;22533;-71
2023/06/15 11:15:40;;;;;;;4.70;3.80;;;;;;;22.24;50.93;95504.58;106616;1275;25370;-72
2023/06/15 11:18:14;;;;;;;7.40;3.50;;;;;;;22.30;51.67;95508.38;106617;1276;25530;-72
2023/06/15 11:20:59;;;;;;;6.20;3.60;;;;;;;22.36;50.91;95506.50;106626;1276;22659;-72
2023/06/15 11:23:32;;;;;;;5.50;3.70;;;;;;;22.29;51.58;95504.50;106578;1275;22527;-72
2023/06/15 11:26:02;;;;;;;5.50;3.60;;;;;;;22.25;51.43;95506.17;106569;1276;24370;-72
2023/06/15 11:28:31;;;;;;;4.10;3.20;;;;;;;22.25;52.07;95507.41;106609;1276;25303;-72
2023/06/15 11:31:06;;;;;;;4.60;3.30;;;;;;;22.21;50.61;95506.39;106572;1276;22540;-72
2023/06/15 11:33:39;;;;;;;4.20;3.40;;;;;;;22.09;49.77;95498.43;106623;1260;25459;-71
2023/06/15 11:36:10;;;;;;;4.70;3.70;;;;;;;22.05;50.51;95496.88;106560;1276;25390;-71
2023/06/15 11:38:39;;;;;;;7.50;3.50;;;;;;;22.00;50.70;95496.10;106607;1276;25665;-72
2023/06/15 11:41:11;;;;;;;5.60;3.60;;;;;;;22.02;51.60;95494.72;106527;1276;22524;-71